createdAt,value
2022-11-02T00:02:03.143Z,21.58
2022-11-02T00:04:30.191Z,22.15
2022-11-02T00:06:57.162Z,21.52
2022-11-02T00:09:23.996Z,23.23
2022-11-02T00:11:50.886Z,22.55
2022-11-02T00:14:17.779Z,22.75
2022-11-02T00:16:44.666Z,22.45
2022-11-02T00:19:11.855Z,20.50
2022-11-02T00:21:39.010Z,20.60
2022-11-02T00:24:06.988Z,22.05
2022-11-02T00:26:35.561Z,19.98
2022-11-02T00:32:53.052Z,23.13
2022-11-02T00:35:20.026Z,20.80
2022-11-02T00:37:46.958Z,21.52
2022-11-02T00:40:13.991Z,21.55
2022-11-02T00:42:40.886Z,20.20
2022-11-02T00:45:08.496Z,20.25
2022-11-02T00:47:35.419Z,19.67
2022-11-02T00:50:02.288Z,19.23
2022-11-02T00:52:29.172Z,20.08
2022-11-02T00:54:56.151Z,19.40
2022-11-02T00:57:23.236Z,21.50
2022-11-02T00:59:50.173Z,21.73
2022-11-02T01:02:17.440Z,20.05
2022-11-02T01:04:44.497Z,21.10
2022-11-02T01:07:11.345Z,20.75
2022-11-02T01:09:38.292Z,21.42
2022-11-02T01:12:05.740Z,21.02
2022-11-02T01:14:32.851Z,23.52
2022-11-02T01:16:59.786Z,22.02
2022-11-02T01:19:27.030Z,24.02
2022-11-02T01:21:53.888Z,24.52
2022-11-02T01:24:20.822Z,24.55
2022-11-02T01:26:52.025Z,24.05
2022-11-02T01:29:19.317Z,23.52
2022-11-02T01:31:46.505Z,27.02
2022-11-02T01:34:13.426Z,25.65
2022-11-02T01:36:40.513Z,24.02
2022-11-02T01:39:07.888Z,24.33
2022-11-02T01:41:34.831Z,23.73
2022-11-02T01:44:05.652Z,23.50
2022-11-02T01:46:41.955Z,23.23
2022-11-02T01:51:43.801Z,23.65
2022-11-02T01:54:16.091Z,22.60
2022-11-02T01:56:46.145Z,25.05
2022-11-02T01:59:21.188Z,24.52
2022-11-02T02:01:49.075Z,25.13
2022-11-02T02:04:16.903Z,25.08
2022-11-02T02:06:44.781Z,27.83
2022-11-02T02:09:13.516Z,26.23
2022-11-02T02:11:40.697Z,25.10
2022-11-02T02:14:15.191Z,25.80
2022-11-02T02:17:06.226Z,26.27
2022-11-02T02:19:53.345Z,26.08
2022-11-02T02:22:51.093Z,25.30
2022-11-02T02:25:23.883Z,26.13
2022-11-02T02:28:02.791Z,24.58
2022-11-02T02:30:35.654Z,25.67
2022-11-02T02:33:10.542Z,25.33
2022-11-02T02:35:53.909Z,24.92
2022-11-02T02:38:35.167Z,27.75
2022-11-02T02:41:21.891Z,27.08
2022-11-02T02:43:55.266Z,25.95
2022-11-02T02:46:34.515Z,27.33
2022-11-02T02:49:03.670Z,27.80
2022-11-02T02:51:33.022Z,29.05
2022-11-02T02:54:34.554Z,29.75
2022-11-02T02:57:07.581Z,28.70
2022-11-02T02:59:46.547Z,32.53
2022-11-02T03:02:30.815Z,31.27
2022-11-02T03:04:57.776Z,31.77
2022-11-02T03:07:34.024Z,33.25
2022-11-02T03:10:16.992Z,31.25
2022-11-02T03:13:29.453Z,32.42
2022-11-02T03:16:04.451Z,30.08
2022-11-02T03:18:54.017Z,33.63
2022-11-02T03:21:27.203Z,32.67
2022-11-02T03:24:12.680Z,34.53
2022-11-02T03:26:42.750Z,34.80
2022-11-02T03:29:14.225Z,31.85
2022-11-02T03:31:47.143Z,31.83
2022-11-02T03:34:28.836Z,32.05
2022-11-02T03:37:19.594Z,33.90
2022-11-02T03:39:50.371Z,33.47
2022-11-02T03:42:22.612Z,31.25
2022-11-02T03:44:56.270Z,35.08
2022-11-02T03:47:23.989Z,35.97
2022-11-02T03:49:53.617Z,35.22
2022-11-02T03:52:26.425Z,34.13
2022-11-02T03:55:10.930Z,34.10
2022-11-02T03:57:56.407Z,35.88
2022-11-02T04:00:25.182Z,38.08
2022-11-02T04:02:55.784Z,35.70
2022-11-02T04:05:34.043Z,33.97
2022-11-02T04:08:20.256Z,36.15
2022-11-02T04:11:10.051Z,35.78
2022-11-02T04:13:55.807Z,35.38
2022-11-02T04:16:26.640Z,34.65
2022-11-02T04:19:13.985Z,36.17
2022-11-02T04:21:41.345Z,35.87
2022-11-02T04:24:27.526Z,35.60
2022-11-02T04:26:54.425Z,34.70
2022-11-02T04:29:21.318Z,35.45
2022-11-02T04:31:48.120Z,33.60
2022-11-02T04:34:14.949Z,35.80
2022-11-02T04:36:41.968Z,35.38
2022-11-02T04:39:08.811Z,36.70
2022-11-02T04:41:44.757Z,35.90
2022-11-02T04:44:14.421Z,35.45
2022-11-02T04:46:43.035Z,38.33
2022-11-02T04:49:11.329Z,36.25
2022-11-02T04:51:42.437Z,36.15
2022-11-02T04:54:11.292Z,36.55
2022-11-02T04:56:38.581Z,37.42
2022-11-02T04:59:05.638Z,40.20
2022-11-02T05:01:32.888Z,38.42
2022-11-02T05:03:59.967Z,41.40
2022-11-02T05:06:28.254Z,42.13
2022-11-02T05:08:56.218Z,40.58
2022-11-02T05:11:23.465Z,39.28
2022-11-02T05:13:50.448Z,40.85
2022-11-02T05:16:18.719Z,39.58
2022-11-02T05:18:45.712Z,37.78
2022-11-02T05:21:13.343Z,38.00
2022-11-02T05:23:40.695Z,37.63
2022-11-02T05:26:12.159Z,40.90
2022-11-02T05:28:40.183Z,38.42
2022-11-02T05:31:07.410Z,37.70
2022-11-02T05:33:36.994Z,38.75
2022-11-02T05:36:05.784Z,39.30
2022-11-02T05:38:33.529Z,35.47
2022-11-02T05:41:00.973Z,38.55
2022-11-02T05:43:38.340Z,38.90
2022-11-02T05:46:23.292Z,41.80
2022-11-02T06:14:56.231Z,45.03
2022-11-02T06:24:05.744Z,44.03
2022-11-02T06:26:39.156Z,43.55
2022-11-02T06:29:32.212Z,44.67
2022-11-02T06:32:17.126Z,45.60
2022-11-02T06:34:53.338Z,43.42
2022-11-02T06:37:45.273Z,41.13
2022-11-02T06:41:13.121Z,41.38
2022-11-02T06:43:46.992Z,42.07
2022-11-02T07:06:56.783Z,38.42
2022-11-02T07:20:27.892Z,37.58
2022-11-02T08:54:48.923Z,20.53
2022-11-02T08:57:49.341Z,21.23
2022-11-02T09:00:23.331Z,21.35
2022-11-02T09:03:03.532Z,21.02
2022-11-02T09:05:40.038Z,19.15
2022-11-02T09:08:59.677Z,18.02
2022-11-02T09:11:41.880Z,17.10
2022-11-02T09:14:30.385Z,18.85
2022-11-02T09:19:41.917Z,17.48
2022-11-02T09:22:11.149Z,16.25
2022-11-02T09:24:40.953Z,16.70
2022-11-02T09:27:18.470Z,15.50
2022-11-02T09:29:46.147Z,14.48
2022-11-02T09:32:28.511Z,16.55
2022-11-02T09:34:56.093Z,14.80
2022-11-02T09:37:29.778Z,14.20
2022-11-02T09:40:00.680Z,14.23
2022-11-02T09:42:45.345Z,13.80
2022-11-02T09:45:25.521Z,15.35
2022-11-02T09:48:18.886Z,15.82
2022-11-02T09:51:28.628Z,14.00
2022-11-02T09:54:59.419Z,13.07
2022-11-02T10:01:42.611Z,14.63
2022-11-02T10:04:53.275Z,14.02
2022-11-02T10:07:33.825Z,12.48
2022-11-02T10:10:39.365Z,12.95
2022-11-02T10:13:25.164Z,12.35
2022-11-02T10:16:09.831Z,13.25
2022-11-02T10:18:41.994Z,11.00
2022-11-02T10:21:27.436Z,12.18
2022-11-02T10:24:06.303Z,11.95
2022-11-02T10:26:38.895Z,12.20
2022-11-02T10:29:46.174Z,12.07
2022-11-02T10:32:20.050Z,12.18
2022-11-02T10:36:17.651Z,11.55
2022-11-02T10:42:16.871Z,11.23
2022-11-02T10:45:11.851Z,10.68
2022-11-02T10:48:28.411Z,11.88
2022-11-02T10:51:17.987Z,11.90
2022-11-02T10:53:47.817Z,11.93
2022-11-02T10:56:28.380Z,12.52
2022-11-02T10:59:33.245Z,10.93
2022-11-02T11:02:12.683Z,11.30
2022-11-02T11:04:42.061Z,10.35
2022-11-02T11:07:30.008Z,9.25
2022-11-02T11:09:58.388Z,10.00
2022-11-02T11:12:40.778Z,9.63
2022-11-02T11:21:07.903Z,9.23
2022-11-02T11:23:39.330Z,10.35
2022-11-02T11:26:24.692Z,9.77
2022-11-02T11:28:58.648Z,10.18
2022-11-02T11:31:37.794Z,9.82
2022-11-02T11:35:17.321Z,7.55
2022-11-02T11:37:53.380Z,7.57
2022-11-02T11:40:27.139Z,7.90
2022-11-02T11:43:01.472Z,6.78
2022-11-02T11:45:37.858Z,7.17
2022-11-02T11:49:18.545Z,7.18
2022-11-02T12:01:52.195Z,8.52
2022-11-02T12:05:04.995Z,8.30
2022-11-02T12:12:46.909Z,8.65
2022-11-02T12:15:58.595Z,9.50
2022-11-02T12:19:08.283Z,9.27
2022-11-02T12:22:13.283Z,8.93
2022-11-02T12:25:40.861Z,9.30
2022-11-02T12:28:29.765Z,10.55
2022-11-02T12:31:25.920Z,10.05
2022-11-02T12:34:27.585Z,10.40
2022-11-02T12:37:40.799Z,10.10
2022-11-02T12:40:56.245Z,10.60
2022-11-02T12:43:36.993Z,11.30
2022-11-02T12:46:45.959Z,11.35
2022-11-02T12:49:59.137Z,12.15
2022-11-02T12:52:56.199Z,10.93
2022-11-02T12:55:35.675Z,11.95
2022-11-02T12:58:10.914Z,12.15
2022-11-02T13:00:47.390Z,12.45
2022-11-02T13:03:46.485Z,11.77
2022-11-02T13:06:20.294Z,14.05
2022-11-02T13:09:51.505Z,13.43
2022-11-02T13:12:23.021Z,17.20
2022-11-02T13:14:55.835Z,15.65
2022-11-02T13:17:49.918Z,13.40
2022-11-02T13:20:19.201Z,13.90
2022-11-02T13:22:54.407Z,15.40
2022-11-02T13:25:39.091Z,16.40
2022-11-02T13:28:16.616Z,13.05
2022-11-02T13:30:45.076Z,13.57
2022-11-02T13:33:21.465Z,13.63
2022-11-02T13:38:23.735Z,13.25
2022-11-02T13:41:09.128Z,16.05
2022-11-02T13:44:09.630Z,15.20
2022-11-02T13:46:39.596Z,18.30
2022-11-02T13:49:15.689Z,17.17
2022-11-02T13:51:52.474Z,19.42
2022-11-02T13:54:31.753Z,21.00
2022-11-02T13:56:59.334Z,21.90
2022-11-02T13:59:31.376Z,19.98
2022-11-02T14:02:02.126Z,18.88
2022-11-02T14:04:38.041Z,19.52
2022-11-02T14:07:08.893Z,20.30
2022-11-02T14:09:39.974Z,20.55
2022-11-02T14:12:22.690Z,17.73
2022-11-02T14:15:14.789Z,21.00
2022-11-02T14:17:53.880Z,22.38
2022-11-02T14:20:43.485Z,21.02
2022-11-02T14:23:15.314Z,17.27
2022-11-02T14:25:54.654Z,12.68
2022-11-02T14:28:29.260Z,13.30
2022-11-02T14:31:02.423Z,13.20
2022-11-02T14:33:58.092Z,11.93
2022-11-02T14:36:43.448Z,12.60
2022-11-02T14:39:19.599Z,12.68
2022-11-02T14:42:00.430Z,12.65
2022-11-02T14:44:36.888Z,11.18
2022-11-02T14:47:08.979Z,13.38
2022-11-02T14:49:50.317Z,12.95
2022-11-02T14:52:32.165Z,13.00
2022-11-02T14:55:10.558Z,13.60
2022-11-02T14:57:52.246Z,15.00
2022-11-02T15:00:29.065Z,13.35
2022-11-02T15:02:57.266Z,15.40
2022-11-02T15:05:37.448Z,15.13
2022-11-02T15:08:27.676Z,16.75
2022-11-02T15:10:56.355Z,16.58
2022-11-02T15:13:35.385Z,16.05
2022-11-02T15:16:02.711Z,17.05
2022-11-02T15:18:29.697Z,15.85
2022-11-02T15:21:13.144Z,17.35
2022-11-02T15:24:04.904Z,16.48
2022-11-02T15:26:57.191Z,14.45
2022-11-02T15:29:27.717Z,15.73
2022-11-02T15:31:58.413Z,17.00
2022-11-02T15:34:48.332Z,23.23
2022-11-02T15:37:20.708Z,19.45
2022-11-02T15:40:00.348Z,18.83
2022-11-02T15:42:43.355Z,19.98
2022-11-02T15:45:50.613Z,21.38
2022-11-02T15:48:55.109Z,23.48
2022-11-02T15:52:14.755Z,23.60
2022-11-02T15:55:05.796Z,37.25
2022-11-02T15:57:49.817Z,21.13
2022-11-02T16:00:31.020Z,20.98
2022-11-02T16:03:04.356Z,21.52
2022-11-02T16:05:47.442Z,20.48
2022-11-02T16:08:32.101Z,24.40
2022-11-02T16:11:23.073Z,19.10
2022-11-02T16:14:08.699Z,21.52
2022-11-02T16:16:47.628Z,21.80
2022-11-02T16:19:23.514Z,25.00
2022-11-02T16:21:54.077Z,23.23
2022-11-02T16:24:25.580Z,23.92
2022-11-02T16:27:00.047Z,21.40
2022-11-02T16:29:39.103Z,18.95
2022-11-02T16:32:13.641Z,19.92
2022-11-02T16:34:42.460Z,19.73
2022-11-02T16:37:15.857Z,20.63
2022-11-02T16:39:49.456Z,26.38
2022-11-02T16:42:26.885Z,22.73
2022-11-02T16:44:59.359Z,20.75
2022-11-02T16:47:42.293Z,21.17
2022-11-02T16:50:26.079Z,19.33
2022-11-02T16:52:56.446Z,19.70
2022-11-02T16:55:55.046Z,18.08
2022-11-02T16:58:33.709Z,16.42
2022-11-02T17:01:07.907Z,19.30
2022-11-02T17:03:41.704Z,19.88
2022-11-02T17:06:18.058Z,17.30
2022-11-02T17:08:58.872Z,18.88
2022-11-02T17:11:34.080Z,18.35
2022-11-02T17:14:04.571Z,20.10
2022-11-02T17:16:34.787Z,18.73
2022-11-02T17:19:04.812Z,20.02
2022-11-02T17:21:32.108Z,18.13
2022-11-02T17:23:59.992Z,19.08
2022-11-02T17:26:33.525Z,18.98
2022-11-02T17:29:23.062Z,15.48
2022-11-02T17:32:03.764Z,14.95
2022-11-02T17:34:32.746Z,14.80
2022-11-02T17:37:00.464Z,16.23
2022-11-02T17:39:30.031Z,14.13
2022-11-02T17:42:20.578Z,15.35
2022-11-02T17:44:55.882Z,16.90
2022-11-02T17:47:23.614Z,17.63
2022-11-02T17:49:51.470Z,16.92
2022-11-02T17:52:19.141Z,16.52
2022-11-02T17:54:49.921Z,16.02
2022-11-02T17:57:22.186Z,16.08
2022-11-02T17:59:51.770Z,16.08
2022-11-02T18:02:20.593Z,16.35
2022-11-02T18:04:48.162Z,14.18
2022-11-02T18:07:18.367Z,15.20
2022-11-02T18:09:47.242Z,14.70
2022-11-02T18:12:18.169Z,14.07
2022-11-02T18:14:53.754Z,13.98
2022-11-02T18:17:21.446Z,12.93
2022-11-02T18:19:49.212Z,12.95
2022-11-02T18:22:18.940Z,13.32
2022-11-02T18:24:53.084Z,14.07
2022-11-02T18:27:24.963Z,13.02
2022-11-02T18:30:01.380Z,14.10
2022-11-02T18:32:31.020Z,13.27
2022-11-02T18:34:59.674Z,12.50
2022-11-02T18:37:35.092Z,13.40
2022-11-02T18:40:03.152Z,12.90
2022-11-02T18:42:31.509Z,13.02
2022-11-02T18:45:02.633Z,12.48
2022-11-02T18:47:34.990Z,14.02
2022-11-02T18:50:05.787Z,12.52
2022-11-02T18:52:45.213Z,12.77
2022-11-02T18:55:13.658Z,13.80
2022-11-02T18:57:41.063Z,12.93
2022-11-02T19:00:14.871Z,13.45
2022-11-02T19:02:49.911Z,13.30
2022-11-02T19:05:39.483Z,12.77
2022-11-02T19:08:27.384Z,12.57
2022-11-02T19:10:54.945Z,12.73
2022-11-02T19:13:24.186Z,12.30
2022-11-02T19:15:51.590Z,13.35
2022-11-02T19:18:18.780Z,11.93
2022-11-02T19:20:46.015Z,12.43
2022-11-02T19:23:13.234Z,11.60
2022-11-02T19:25:40.266Z,12.52
2022-11-02T19:28:09.655Z,11.93
2022-11-02T19:30:41.429Z,12.20
2022-11-02T19:33:09.398Z,12.55
2022-11-02T19:35:36.414Z,13.00
2022-11-02T19:38:03.810Z,11.35
2022-11-02T19:40:31.148Z,11.70
2022-11-02T19:42:58.413Z,13.30
2022-11-02T19:45:26.153Z,13.38
2022-11-02T19:47:53.374Z,13.43
2022-11-02T19:50:20.453Z,12.50
2022-11-02T19:52:49.549Z,13.15
2022-11-02T19:55:17.480Z,12.45
2022-11-02T19:57:44.435Z,11.80
2022-11-02T20:00:12.494Z,12.43
2022-11-02T20:02:42.443Z,11.98
2022-11-02T20:05:16.082Z,12.90
2022-11-02T20:07:44.218Z,13.05
2022-11-02T20:10:12.324Z,12.80
2022-11-02T20:12:41.065Z,12.93
2022-11-02T20:15:12.147Z,14.07
2022-11-02T20:17:58.311Z,13.45
2022-11-02T20:20:29.601Z,13.07
2022-11-02T20:22:58.816Z,13.68
2022-11-02T20:25:26.519Z,14.10
2022-11-02T20:27:54.048Z,13.48
2022-11-02T20:30:23.305Z,14.57
2022-11-02T20:32:50.648Z,13.82
2022-11-02T20:35:22.332Z,13.43
2022-11-02T20:37:49.865Z,15.20
2022-11-02T20:40:17.089Z,16.13
2022-11-02T20:42:44.085Z,14.82
2022-11-02T20:45:11.593Z,13.30
2022-11-02T20:47:39.800Z,13.95
2022-11-02T20:50:10.192Z,13.52
2022-11-02T20:52:40.013Z,13.55
2022-11-02T20:55:08.670Z,14.25
2022-11-02T20:57:35.721Z,12.95
2022-11-02T21:00:03.217Z,12.90
2022-11-02T21:02:30.810Z,12.30
2022-11-02T21:04:58.997Z,13.52
2022-11-02T21:07:26.480Z,13.43
2022-11-02T21:09:55.105Z,13.60
2022-11-02T21:12:40.796Z,13.23
2022-11-02T21:15:09.152Z,14.90
2022-11-02T21:17:36.475Z,16.02
2022-11-02T21:20:28.454Z,15.43
2022-11-02T21:22:51.260Z,15.70
2022-11-02T21:25:18.816Z,16.17
2022-11-02T21:27:51.745Z,16.30
2022-11-02T21:30:19.476Z,16.55
2022-11-02T21:32:47.086Z,17.60
2022-11-02T21:35:15.211Z,20.52
2022-11-02T21:37:42.991Z,20.83
2022-11-02T21:40:11.797Z,17.20
2022-11-02T21:42:39.028Z,16.67
2022-11-02T21:45:06.988Z,19.38
2022-11-02T21:47:36.860Z,18.83
2022-11-02T21:50:07.283Z,17.77
2022-11-02T21:52:44.205Z,22.92
2022-11-02T21:55:12.328Z,24.15
2022-11-02T21:57:39.706Z,25.83
2022-11-02T22:00:07.698Z,22.17
2022-11-02T22:02:35.324Z,24.80
2022-11-02T22:05:02.604Z,21.10
2022-11-02T22:07:49.525Z,22.40
2022-11-02T22:10:16.619Z,21.92
2022-11-02T22:13:02.315Z,20.55
2022-11-02T22:15:35.855Z,18.87
2022-11-02T22:18:05.456Z,20.33
2022-11-02T22:20:32.572Z,22.52
2022-11-02T22:22:59.589Z,19.33
2022-11-02T22:25:26.554Z,21.77
2022-11-02T22:27:53.471Z,22.13
2022-11-02T22:30:20.410Z,22.02
2022-11-02T22:32:47.323Z,20.48
2022-11-02T22:35:14.607Z,18.83
2022-11-02T22:38:00.905Z,20.35
2022-11-02T22:40:30.821Z,17.15
2022-11-02T22:42:58.465Z,18.05
2022-11-02T22:45:25.439Z,14.77
2022-11-02T22:47:53.118Z,13.20
2022-11-02T22:50:23.797Z,16.40
2022-11-02T22:52:56.333Z,14.95
2022-11-02T22:55:24.256Z,15.02
2022-11-02T22:57:59.656Z,16.17
2022-11-02T23:00:29.330Z,12.98
2022-11-02T23:02:56.417Z,13.35
2022-11-02T23:05:23.237Z,12.73
2022-11-02T23:07:50.077Z,13.00
2022-11-02T23:10:35.608Z,14.00
2022-11-02T23:13:03.681Z,23.67
2022-11-02T23:15:31.608Z,21.98
2022-11-02T23:17:58.868Z,20.63
2022-11-02T23:20:26.408Z,28.00
2022-11-02T23:22:53.901Z,19.65
2022-11-02T23:25:21.369Z,19.00
2022-11-02T23:28:14.983Z,16.73
2022-11-02T23:31:01.498Z,20.88
2022-11-02T23:33:33.077Z,18.50
2022-11-02T23:36:14.826Z,18.35
2022-11-02T23:39:03.048Z,16.05
2022-11-02T23:41:31.577Z,17.70
2022-11-02T23:44:15.136Z,17.02
2022-11-02T23:46:44.161Z,18.48
2022-11-02T23:49:13.184Z,16.88
2022-11-02T23:51:58.510Z,16.77
2022-11-02T23:54:44.812Z,17.40
2022-11-02T23:57:12.846Z,18.33
2022-11-02T23:59:40.149Z,19.58
